Aviation Digital Data Service (ADDS)

Output produced by METARs form (1014 UTC 04 December 2016)
found at http://aviationweather.gov/adds/metars/
 
KGFL 040532Z 0406/0506 33005KT P6SM BKN040 
     FM041400 36005KT P6SM SCT050 
     FM041800 02007KT P6SM SKC 
     FM042300 VRB03KT P6SM SCT250 
     FM050300 VRB03KT P6SM SCT120 BKN250